sensor_id;sensor_type;location;lat;lon;timestamp;pressure;altitude;pressure_sealevel;temperature;humidity
58686;BME280;44465;53.206;-6.106;2023-05-11T00:01:27;101219.88;;;18.18;52.75
58686;BME280;44465;53.206;-6.106;2023-05-11T00:03:53;101155.44;;;17.81;52.83
58686;BME280;44465;53.206;-6.106;2023-05-11T00:06:20;101162.66;;;18.04;52.39
58686;BME280;44465;53.206;-6.106;2023-05-11T00:08:45;101137.03;;;17.75;52.80
58686;BME280;44465;53.206;-6.106;2023-05-11T00:11:11;101230.28;;;18.25;53.06
58686;BME280;44465;53.206;-6.106;2023-05-11T00:13:36;101172.16;;;17.86;53.34
58686;BME280;44465;53.206;-6.106;2023-05-11T00:16:02;101216.72;;;18.08;52.88
58686;BME280;44465;53.206;-6.106;2023-05-11T00:18:28;101212.13;;;18.11;53.45
58686;BME280;44465;53.206;-6.106;2023-05-11T00:20:54;101178.41;;;17.85;53.14
58686;BME280;44465;53.206;-6.106;2023-05-11T00:23:21;101221.81;;;18.14;52.90
58686;BME280;44465;53.206;-6.106;2023-05-11T00:25:46;101201.22;;;17.92;53.10
58686;BME280;44465;53.206;-6.106;2023-05-11T00:28:12;101169.06;;;17.73;52.89
58686;BME280;44465;53.206;-6.106;2023-05-11T00:30:39;101239.03;;;18.29;53.04
58686;BME280;44465;53.206;-6.106;2023-05-11T00:33:05;101236.53;;;18.24;52.83
58686;BME280;44465;53.206;-6.106;2023-05-11T00:35:30;101209.41;;;18.13;52.63
58686;BME280;44465;53.206;-6.106;2023-05-11T00:37:57;101250.41;;;18.34;52.85
58686;BME280;44465;53.206;-6.106;2023-05-11T00:40:30;101245.09;;;18.34;53.17
58686;BME280;44465;53.206;-6.106;2023-05-11T00:42:59;101233.97;;;18.21;53.25
58686;BME280;44465;53.206;-6.106;2023-05-11T00:45:29;101246.03;;;18.32;53.33
58686;BME280;44465;53.206;-6.106;2023-05-11T00:47:55;101245.75;;;18.39;53.17
58686;BME280;44465;53.206;-6.106;2023-05-11T00:50:20;101209.53;;;18.10;53.01
58686;BME280;44465;53.206;-6.106;2023-05-11T00:52:46;101215.22;;;18.24;52.74
58686;BME280;44465;53.206;-6.106;2023-05-11T00:55:12;101246.75;;;18.37;53.27
58686;BME280;44465;53.206;-6.106;2023-05-11T00:57:38;101225.75;;;18.27;52.67
58686;BME280;44465;53.206;-6.106;2023-05-11T01:00:05;101257.25;;;18.41;52.92
58686;BME280;44465;53.206;-6.106;2023-05-11T01:02:32;101204.34;;;18.05;52.96
58686;BME280;44465;53.206;-6.106;2023-05-11T01:04:59;101240.03;;;18.26;53.08
58686;BME280;44465;53.206;-6.106;2023-05-11T01:10:24;101226.13;;;18.17;53.10
58686;BME280;44465;53.206;-6.106;2023-05-11T01:16:11;101251.16;;;18.38;53.34
58686;BME280;44465;53.206;-6.106;2023-05-11T01:18:42;101246.03;;;18.32;52.50
58686;BME280;44465;53.206;-6.106;2023-05-11T01:21:14;101244.53;;;18.24;52.58
58686;BME280;44465;53.206;-6.106;2023-05-11T01:24:09;101269.50;;;18.47;52.58
58686;BME280;44465;53.206;-6.106;2023-05-11T01:29:29;101271.69;;;18.36;52.92
58686;BME280;44465;53.206;-6.106;2023-05-11T01:32:05;101230.56;;;18.18;52.81
58686;BME280;44465;53.206;-6.106;2023-05-11T01:34:34;101271.56;;;18.39;52.75
58686;BME280;44465;53.206;-6.106;2023-05-11T01:37:07;101238.63;;;18.16;52.65
58686;BME280;44465;53.206;-6.106;2023-05-11T01:39:39;101275.00;;;18.42;52.28
58686;BME280;44465;53.206;-6.106;2023-05-11T01:42:10;101260.31;;;18.31;52.50
58686;BME280;44465;53.206;-6.106;2023-05-11T01:44:38;101219.38;;;18.08;52.30
58686;BME280;44465;53.206;-6.106;2023-05-11T01:47:06;101214.38;;;17.98;52.84
58686;BME280;44465;53.206;-6.106;2023-05-11T01:49:36;101257.66;;;18.31;52.53
58686;BME280;44465;53.206;-6.106;2023-05-11T01:52:04;101260.25;;;18.32;52.73
58686;BME280;44465;53.206;-6.106;2023-05-11T01:54:32;101215.06;;;18.04;52.80
58686;BME280;44465;53.206;-6.106;2023-05-11T01:57:00;101285.81;;;18.38;52.77
58686;BME280;44465;53.206;-6.106;2023-05-11T01:59:27;101263.78;;;18.33;52.52
58686;BME280;44465;53.206;-6.106;2023-05-11T02:01:53;101267.97;;;18.40;52.70
58686;BME280;44465;53.206;-6.106;2023-05-11T02:04:20;101253.13;;;18.33;52.75
58686;BME280;44465;53.206;-6.106;2023-05-11T02:06:47;101261.75;;;18.39;52.48
58686;BME280;44465;53.206;-6.106;2023-05-11T02:09:15;101216.72;;;18.08;53.15
58686;BME280;44465;53.206;-6.106;2023-05-11T02:11:43;101243.28;;;18.35;52.70
58686;BME280;44465;53.206;-6.106;2023-05-11T02:14:10;101211.13;;;18.14;52.09
58686;BME280;44465;53.206;-6.106;2023-05-11T02:16:37;101276.50;;;18.50;52.42
58686;BME280;44465;53.206;-6.106;2023-05-11T02:19:12;101250.63;;;18.28;52.03
58686;BME280;44465;53.206;-6.106;2023-05-11T02:21:40;101264.53;;;18.36;52.79
58686;BME280;44465;53.206;-6.106;2023-05-11T02:24:07;101280.31;;;18.42;52.61
58686;BME280;44465;53.206;-6.106;2023-05-11T02:26:34;101219.25;;;18.11;51.94
58686;BME280;44465;53.206;-6.106;2023-05-11T02:29:00;101207.88;;;18.06;51.61
58686;BME280;44465;53.206;-6.106;2023-05-11T02:31:28;101237.94;;;18.35;51.06
58686;BME280;44465;53.206;-6.106;2023-05-11T02:33:59;101284.94;;;18.37;51.75
58686;BME280;44465;53.206;-6.106;2023-05-11T02:36:28;101269.94;;;18.35;51.95
58686;BME280;44465;53.206;-6.106;2023-05-11T02:39:01;101278.09;;;18.30;51.95
58686;BME280;44465;53.206;-6.106;2023-05-11T02:41:28;101216.28;;;17.93;52.00
58686;BME280;44465;53.206;-6.106;2023-05-11T02:44:01;101268.59;;;18.23;51.62
58686;BME280;44465;53.206;-6.106;2023-05-11T02:46:30;101224.97;;;18.00;51.78
58686;BME280;44465;53.206;-6.106;2023-05-11T02:48:58;101281.50;;;18.35;51.25
58686;BME280;44465;53.206;-6.106;2023-05-11T02:51:35;101279.75;;;18.34;51.53
58686;BME280;44465;53.206;-6.106;2023-05-11T02:54:05;101269.34;;;18.26;51.46
58686;BME280;44465;53.206;-6.106;2023-05-11T02:56:34;101276.31;;;18.31;51.33
58686;BME280;44465;53.206;-6.106;2023-05-11T02:58:59;101263.09;;;18.27;51.29
58686;BME280;44465;53.206;-6.106;2023-05-11T03:01:25;101208.38;;;17.90;51.70
58686;BME280;44465;53.206;-6.106;2023-05-11T03:03:52;101239.88;;;18.06;50.97
58686;BME280;44465;53.206;-6.106;2023-05-11T03:06:18;101263.91;;;18.29;51.01
58686;BME280;44465;53.206;-6.106;2023-05-11T03:08:44;101262.03;;;18.32;50.95
58686;BME280;44465;53.206;-6.106;2023-05-11T03:11:17;101265.75;;;18.27;51.28
58686;BME280;44465;53.206;-6.106;2023-05-11T03:13:45;101237.09;;;18.09;51.23
58686;BME280;44465;53.206;-6.106;2023-05-11T03:16:13;101276.41;;;18.27;51.26
58686;BME280;44465;53.206;-6.106;2023-05-11T03:18:39;101258.91;;;18.20;51.08
58686;BME280;44465;53.206;-6.106;2023-05-11T03:21:05;101266.19;;;18.15;51.35
58686;BME280;44465;53.206;-6.106;2023-05-11T03:23:34;101273.16;;;18.19;51.67
58686;BME280;44465;53.206;-6.106;2023-05-11T03:26:00;101278.59;;;18.16;51.25
58686;BME280;44465;53.206;-6.106;2023-05-11T03:28:26;101223.63;;;17.87;51.22
58686;BME280;44465;53.206;-6.106;2023-05-11T03:31:02;101280.44;;;18.14;51.15
58686;BME280;44465;53.206;-6.106;2023-05-11T03:33:30;101281.44;;;18.11;51.34
58686;BME280;44465;53.206;-6.106;2023-05-11T03:35:57;101285.78;;;18.14;50.51
58686;BME280;44465;53.206;-6.106;2023-05-11T03:38:25;101275.44;;;18.05;51.10
58686;BME280;44465;53.206;-6.106;2023-05-11T03:40:54;101260.66;;;17.94;50.88
58686;BME280;44465;53.206;-6.106;2023-05-11T03:43:21;101283.38;;;18.06;50.60
58686;BME280;44465;53.206;-6.106;2023-05-11T03:45:50;101230.34;;;17.72;51.18
58686;BME280;44465;53.206;-6.106;2023-05-11T03:48:18;101276.59;;;17.97;50.97
58686;BME280;44465;53.206;-6.106;2023-05-11T03:50:46;101258.09;;;17.91;51.34
58686;BME280;44465;53.206;-6.106;2023-05-11T03:53:12;101286.09;;;18.05;50.74
58686;BME280;44465;53.206;-6.106;2023-05-11T03:55:38;101258.97;;;17.92;51.05
58686;BME280;44465;53.206;-6.106;2023-05-11T03:58:25;101295.78;;;18.07;51.54
58686;BME280;44465;53.206;-6.106;2023-05-11T04:00:51;101289.06;;;17.95;51.65
58686;BME280;44465;53.206;-6.106;2023-05-11T04:03:17;101291.53;;;18.02;51.35
58686;BME280;44465;53.206;-6.106;2023-05-11T04:05:42;101271.41;;;17.91;51.86
58686;BME280;44465;53.206;-6.106;2023-05-11T04:08:10;101310.16;;;18.03;52.05
58686;BME280;44465;53.206;-6.106;2023-05-11T04:10:37;101242.84;;;17.70;51.98
58686;BME280;44465;53.206;-6.106;2023-05-11T04:13:04;101306.41;;;18.09;52.01
58686;BME280;44465;53.206;-6.106;2023-05-11T04:15:30;101240.31;;;17.66;51.97
58686;BME280;44465;53.206;-6.106;2023-05-11T04:17:55;101268.59;;;17.97;52.10
58686;BME280;44465;53.206;-6.106;2023-05-11T04:20:21;101295.09;;;18.02;52.13
58686;BME280;44465;53.206;-6.106;2023-05-11T04:22:47;101300.19;;;18.08;52.21
58686;BME280;44465;53.206;-6.106;2023-05-11T04:25:13;101306.91;;;18.20;52.05
58686;BME280;44465;53.206;-6.106;2023-05-11T04:27:38;101307.41;;;18.05;51.66
58686;BME280;44465;53.206;-6.106;2023-05-11T04:30:05;101319.41;;;18.18;52.01
58686;BME280;44465;53.206;-6.106;2023-05-11T04:32:30;101292.50;;;17.99;52.22
58686;BME280;44465;53.206;-6.106;2023-05-11T04:34:56;101302.84;;;18.08;52.34
58686;BME280;44465;53.206;-6.106;2023-05-11T04:37:24;101319.72;;;18.09;52.36
58686;BME280;44465;53.206;-6.106;2023-05-11T04:39:50;101307.41;;;18.05;51.80
58686;BME280;44465;53.206;-6.106;2023-05-11T04:42:16;101297.03;;;17.95;52.49
58686;BME280;44465;53.206;-6.106;2023-05-11T04:44:44;101312.44;;;18.14;51.88
58686;BME280;44465;53.206;-6.106;2023-05-11T04:47:10;101311.44;;;18.17;51.48
58686;BME280;44465;53.206;-6.106;2023-05-11T04:49:36;101260.38;;;17.77;51.75
58686;BME280;44465;53.206;-6.106;2023-05-11T04:52:01;101305.91;;;17.97;52.11
58686;BME280;44465;53.206;-6.106;2023-05-11T04:54:28;101285.47;;;17.70;52.43
58686;BME280;44465;53.206;-6.106;2023-05-11T04:56:55;101276.25;;;17.80;51.85
58686;BME280;44465;53.206;-6.106;2023-05-11T04:59:21;101309.47;;;17.96;52.38
58686;BME280;44465;53.206;-6.106;2023-05-11T05:01:47;101326.69;;;18.13;52.04
58686;BME280;44465;53.206;-6.106;2023-05-11T05:04:12;101326.16;;;18.03;52.16
58686;BME280;44465;53.206;-6.106;2023-05-11T05:06:38;101331.97;;;18.14;52.02
58686;BME280;44465;53.206;-6.106;2023-05-11T05:09:03;101266.72;;;17.73;52.49
58686;BME280;44465;53.206;-6.106;2023-05-11T05:11:29;101330.72;;;18.00;52.16
58686;BME280;44465;53.206;-6.106;2023-05-11T05:13:55;101321.19;;;17.91;52.31
58686;BME280;44465;53.206;-6.106;2023-05-11T05:16:21;101320.22;;;17.93;52.45
58686;BME280;44465;53.206;-6.106;2023-05-11T05:18:47;101351.56;;;18.13;51.84
58686;BME280;44465;53.206;-6.106;2023-05-11T05:21:13;101287.22;;;17.71;52.06
58686;BME280;44465;53.206;-6.106;2023-05-11T05:23:38;101335.22;;;17.97;52.34
58686;BME280;44465;53.206;-6.106;2023-05-11T05:26:04;101338.78;;;17.95;52.32
58686;BME280;44465;53.206;-6.106;2023-05-11T05:28:31;101280.34;;;17.63;52.40
58686;BME280;44465;53.206;-6.106;2023-05-11T05:30:58;101337.09;;;17.94;51.88
58686;BME280;44465;53.206;-6.106;2023-05-11T05:33:25;101264.69;;;17.54;52.45
58686;BME280;44465;53.206;-6.106;2023-05-11T05:35:51;101347.69;;;17.95;52.30
58686;BME280;44465;53.206;-6.106;2023-05-11T05:38:16;101282.31;;;17.58;51.78
58686;BME280;44465;53.206;-6.106;2023-05-11T05:40:42;101285.06;;;17.55;52.65
58686;BME280;44465;53.206;-6.106;2023-05-11T05:43:08;101370.63;;;18.01;52.26
58686;BME280;44465;53.206;-6.106;2023-05-11T05:45:33;101323.44;;;17.76;52.38
58686;BME280;44465;53.206;-6.106;2023-05-11T05:48:00;101314.63;;;17.74;51.89
58686;BME280;44465;53.206;-6.106;2023-05-11T05:50:26;101362.72;;;17.98;52.52
58686;BME280;44465;53.206;-6.106;2023-05-11T05:52:53;101307.00;;;17.63;52.43
58686;BME280;44465;53.206;-6.106;2023-05-11T05:55:21;101280.97;;;17.45;52.87
58686;BME280;44465;53.206;-6.106;2023-05-11T05:57:48;101348.69;;;17.91;52.49
58686;BME280;44465;53.206;-6.106;2023-05-11T06:00:15;101357.38;;;17.98;52.63
58686;BME280;44465;53.206;-6.106;2023-05-11T06:02:41;101298.63;;;17.74;52.62
58686;BME280;44465;53.206;-6.106;2023-05-11T06:05:13;101320.75;;;17.76;52.39
58686;BME280;44465;53.206;-6.106;2023-05-11T06:07:39;101306.53;;;17.77;51.95
58686;BME280;44465;53.206;-6.106;2023-05-11T06:10:04;101319.19;;;17.71;52.38
58686;BME280;44465;53.206;-6.106;2023-05-11T06:12:30;101350.44;;;17.92;52.82
58686;BME280;44465;53.206;-6.106;2023-05-11T06:14:56;101353.88;;;17.96;53.14
58686;BME280;44465;53.206;-6.106;2023-05-11T06:17:22;101315.59;;;17.72;52.69
58686;BME280;44465;53.206;-6.106;2023-05-11T06:19:48;101345.22;;;17.89;52.65
58686;BME280;44465;53.206;-6.106;2023-05-11T06:22:16;101278.00;;;17.54;52.82
58686;BME280;44465;53.206;-6.106;2023-05-11T06:24:45;101305.16;;;17.65;52.76
58686;BME280;44465;53.206;-6.106;2023-05-11T06:27:11;101345.88;;;17.96;52.52
58686;BME280;44465;53.206;-6.106;2023-05-11T06:29:37;101321.44;;;17.83;52.44
58686;BME280;44465;53.206;-6.106;2023-05-11T06:32:03;101347.78;;;17.92;53.10
58686;BME280;44465;53.206;-6.106;2023-05-11T06:34:31;101360.66;;;18.06;52.94
58686;BME280;44465;53.206;-6.106;2023-05-11T06:36:58;101359.06;;;18.01;52.74
58686;BME280;44465;53.206;-6.106;2023-05-11T06:39:24;101325.94;;;17.81;52.76
58686;BME280;44465;53.206;-6.106;2023-05-11T06:41:52;101373.13;;;18.06;52.95
58686;BME280;44465;53.206;-6.106;2023-05-11T06:44:18;101356.25;;;18.05;52.91
58686;BME280;44465;53.206;-6.106;2023-05-11T06:46:44;101341.47;;;17.95;52.48
58686;BME280;44465;53.206;-6.106;2023-05-11T06:49:09;101280.03;;;17.73;52.76
58686;BME280;44465;53.206;-6.106;2023-05-11T06:51:35;101338.84;;;17.93;52.71
58686;BME280;44465;53.206;-6.106;2023-05-11T06:54:00;101327.59;;;17.85;53.04
58686;BME280;44465;53.206;-6.106;2023-05-11T06:56:26;101301.56;;;17.66;52.78
58686;BME280;44465;53.206;-6.106;2023-05-11T06:58:53;101353.59;;;18.05;52.74
58686;BME280;44465;53.206;-6.106;2023-05-11T07:01:20;101360.50;;;18.11;52.40
58686;BME280;44465;53.206;-6.106;2023-05-11T07:03:45;101318.59;;;17.89;52.32
58686;BME280;44465;53.206;-6.106;2023-05-11T07:06:13;101348.59;;;17.94;52.39
58686;BME280;44465;53.206;-6.106;2023-05-11T07:08:39;101388.00;;;18.13;52.66
58686;BME280;44465;53.206;-6.106;2023-05-11T07:11:05;101293.06;;;17.55;52.81
58686;BME280;44465;53.206;-6.106;2023-05-11T07:13:31;101338.34;;;17.82;52.63
58686;BME280;44465;53.206;-6.106;2023-05-11T07:15:56;101342.66;;;17.86;52.45
58686;BME280;44465;53.206;-6.106;2023-05-11T07:18:22;101321.13;;;17.65;52.57
58686;BME280;44465;53.206;-6.106;2023-05-11T07:20:47;101384.00;;;18.00;52.72
58686;BME280;44465;53.206;-6.106;2023-05-11T07:23:15;101390.78;;;18.10;52.72
58686;BME280;44465;53.206;-6.106;2023-05-11T07:25:41;101348.91;;;17.85;52.45
58686;BME280;44465;53.206;-6.106;2023-05-11T07:28:11;101328.88;;;17.73;52.56
58686;BME280;44465;53.206;-6.106;2023-05-11T07:30:37;101341.13;;;17.79;52.47
58686;BME280;44465;53.206;-6.106;2023-05-11T07:33:02;101352.50;;;17.84;52.74
58686;BME280;44465;53.206;-6.106;2023-05-11T07:35:28;101399.97;;;18.26;52.10
58686;BME280;44465;53.206;-6.106;2023-05-11T07:37:53;101369.72;;;18.01;52.62
58686;BME280;44465;53.206;-6.106;2023-05-11T07:40:19;101382.97;;;18.04;52.47
58686;BME280;44465;53.206;-6.106;2023-05-11T07:42:44;101306.91;;;17.66;52.40
58686;BME280;44465;53.206;-6.106;2023-05-11T07:45:10;101325.31;;;17.73;52.84
58686;BME280;44465;53.206;-6.106;2023-05-11T07:47:35;101324.03;;;17.84;52.65
58686;BME280;44465;53.206;-6.106;2023-05-11T07:50:01;101377.16;;;18.18;52.45
58686;BME280;44465;53.206;-6.106;2023-05-11T07:52:32;101359.41;;;17.90;52.89
58686;BME280;44465;53.206;-6.106;2023-05-11T07:54:57;101333.78;;;17.86;52.91
58686;BME280;44465;53.206;-6.106;2023-05-11T07:57:23;101375.78;;;18.06;52.73
58686;BME280;44465;53.206;-6.106;2023-05-11T07:59:48;101351.88;;;18.04;52.52
58686;BME280;44465;53.206;-6.106;2023-05-11T08:02:14;101379.81;;;18.19;52.20
58686;BME280;44465;53.206;-6.106;2023-05-11T08:04:40;101383.47;;;18.15;52.53
58686;BME280;44465;53.206;-6.106;2023-05-11T08:07:05;101381.72;;;18.14;52.17
58686;BME280;44465;53.206;-6.106;2023-05-11T08:09:31;101397.66;;;18.16;52.42
58686;BME280;44465;53.206;-6.106;2023-05-11T08:11:56;101401.31;;;18.13;52.53
58686;BME280;44465;53.206;-6.106;2023-05-11T08:14:23;101387.31;;;18.06;52.44
58686;BME280;44465;53.206;-6.106;2023-05-11T08:16:49;101390.63;;;18.14;52.67
58686;BME280;44465;53.206;-6.106;2023-05-11T08:19:15;101374.16;;;18.02;52.31
58686;BME280;44465;53.206;-6.106;2023-05-11T08:21:40;101329.59;;;17.78;52.51
58686;BME280;44465;53.206;-6.106;2023-05-11T08:24:06;101391.78;;;18.06;51.95
58686;BME280;44465;53.206;-6.106;2023-05-11T08:26:32;101387.28;;;18.08;52.36
58686;BME280;44465;53.206;-6.106;2023-05-11T08:28:57;101324.63;;;17.67;52.08
58686;BME280;44465;53.206;-6.106;2023-05-11T08:31:23;101341.41;;;17.70;52.42
58686;BME280;44465;53.206;-6.106;2023-05-11T08:33:48;101320.91;;;17.72;51.72
58686;BME280;44465;53.206;-6.106;2023-05-11T08:36:14;101353.22;;;17.89;52.55
58686;BME280;44465;53.206;-6.106;2023-05-11T08:38:40;101405.66;;;18.16;52.82
58686;BME280;44465;53.206;-6.106;2023-05-11T08:41:05;101404.72;;;18.18;52.44
58686;BME280;44465;53.206;-6.106;2023-05-11T08:43:33;101419.81;;;18.18;52.62
58686;BME280;44465;53.206;-6.106;2023-05-11T08:46:02;101381.13;;;17.19;50.95
58686;BME280;44465;53.206;-6.106;2023-05-11T08:48:29;101359.56;;;16.65;51.85
58686;BME280;44465;53.206;-6.106;2023-05-11T08:50:55;101379.19;;;16.61;52.08
58686;BME280;44465;53.206;-6.106;2023-05-11T08:53:21;101364.66;;;16.74;51.99
58686;BME280;44465;53.206;-6.106;2023-05-11T08:55:47;101379.69;;;16.42;52.04
58686;BME280;44465;53.206;-6.106;2023-05-11T08:58:14;101323.94;;;16.06;51.08
58686;BME280;44465;53.206;-6.106;2023-05-11T09:00:44;101371.94;;;16.66;50.80
58686;BME280;44465;53.206;-6.106;2023-05-11T09:03:13;101369.34;;;16.32;51.17
58686;BME280;44465;53.206;-6.106;2023-05-11T09:05:40;101379.81;;;16.38;51.97
58686;BME280;44465;53.206;-6.106;2023-05-11T09:08:07;101387.22;;;16.25;51.94
58686;BME280;44465;53.206;-6.106;2023-05-11T09:10:35;101438.63;;;16.60;51.90
58686;BME280;44465;53.206;-6.106;2023-05-11T09:13:01;101367.22;;;16.44;50.91
58686;BME280;44465;53.206;-6.106;2023-05-11T09:15:27;101384.66;;;16.22;51.96
58686;BME280;44465;53.206;-6.106;2023-05-11T09:17:52;101384.66;;;16.55;51.62
58686;BME280;44465;53.206;-6.106;2023-05-11T09:20:28;101351.81;;;16.24;51.42
58686;BME280;44465;53.206;-6.106;2023-05-11T09:22:54;101381.09;;;16.56;51.42
58686;BME280;44465;53.206;-6.106;2023-05-11T09:25:21;101402.13;;;16.65;51.23
58686;BME280;44465;53.206;-6.106;2023-05-11T09:27:46;101403.00;;;16.66;51.16
58686;BME280;44465;53.206;-6.106;2023-05-11T09:30:22;101402.69;;;16.77;50.65
58686;BME280;44465;53.206;-6.106;2023-05-11T09:32:49;101392.19;;;16.72;51.28
58686;BME280;44465;53.206;-6.106;2023-05-11T09:38:07;101407.69;;;16.89;51.63
58686;BME280;44465;53.206;-6.106;2023-05-11T09:40:59;101430.31;;;16.72;51.41
58686;BME280;44465;53.206;-6.106;2023-05-11T09:43:29;101418.84;;;16.70;51.21
58686;BME280;44465;53.206;-6.106;2023-05-11T09:45:56;101416.69;;;16.50;51.47
58686;BME280;44465;53.206;-6.106;2023-05-11T09:48:27;101417.81;;;16.76;51.47
58686;BME280;44465;53.206;-6.106;2023-05-11T09:51:03;101415.97;;;16.78;51.97
58686;BME280;44465;53.206;-6.106;2023-05-11T09:53:40;101415.22;;;16.73;51.91
58686;BME280;44465;53.206;-6.106;2023-05-11T09:56:07;101417.00;;;16.39;51.02
58686;BME280;44465;53.206;-6.106;2023-05-11T09:58:48;101435.16;;;15.82;52.30
58686;BME280;44465;53.206;-6.106;2023-05-11T10:01:16;101441.16;;;15.92;53.53
58686;BME280;44465;53.206;-6.106;2023-05-11T10:03:50;101428.56;;;16.02;54.12
58686;BME280;44465;53.206;-6.106;2023-05-11T10:06:16;101432.69;;;16.49;53.16
58686;BME280;44465;53.206;-6.106;2023-05-11T10:08:42;101442.84;;;16.67;53.24
58686;BME280;44465;53.206;-6.106;2023-05-11T10:11:07;101433.31;;;16.93;52.77
58686;BME280;44465;53.206;-6.106;2023-05-11T10:13:33;101427.56;;;17.09;52.67
58686;BME280;44465;53.206;-6.106;2023-05-11T10:16:02;101443.03;;;17.27;53.03
58686;BME280;44465;53.206;-6.106;2023-05-11T10:18:32;101423.78;;;17.47;53.23
58686;BME280;44465;53.206;-6.106;2023-05-11T10:20:58;101432.81;;;17.42;53.93
58686;BME280;44465;53.206;-6.106;2023-05-11T10:23:24;101430.16;;;17.42;54.05
58686;BME280;44465;53.206;-6.106;2023-05-11T10:25:51;101424.00;;;17.40;54.65
58686;BME280;44465;53.206;-6.106;2023-05-11T10:28:18;101411.59;;;17.39;55.07
58686;BME280;44465;53.206;-6.106;2023-05-11T10:30:45;101414.09;;;17.45;55.28
58686;BME280;44465;53.206;-6.106;2023-05-11T10:33:11;101411.88;;;17.59;54.99
58686;BME280;44465;53.206;-6.106;2023-05-11T10:35:37;101422.63;;;17.56;55.02
58686;BME280;44465;53.206;-6.106;2023-05-11T10:38:03;101426.66;;;17.40;55.00
58686;BME280;44465;53.206;-6.106;2023-05-11T10:40:29;101421.31;;;16.77;56.15
58686;BME280;44465;53.206;-6.106;2023-05-11T11:00:11;101413.97;;;17.19;55.79
58686;BME280;44465;53.206;-6.106;2023-05-11T11:02:41;101416.22;;;17.33;55.64
58686;BME280;44465;53.206;-6.106;2023-05-11T11:05:06;101423.19;;;17.38;55.73
58686;BME280;44465;53.206;-6.106;2023-05-11T11:07:59;101414.28;;;17.39;55.71
58686;BME280;44465;53.206;-6.106;2023-05-11T11:10:41;101412.50;;;17.39;55.78
58686;BME280;44465;53.206;-6.106;2023-05-11T11:13:16;101420.97;;;17.22;55.72
58686;BME280;44465;53.206;-6.106;2023-05-11T11:18:19;101422.09;;;17.45;55.90
58686;BME280;44465;53.206;-6.106;2023-05-11T11:20:50;101412.44;;;17.41;55.80
58686;BME280;44465;53.206;-6.106;2023-05-11T11:23:39;101417.53;;;17.48;55.63
58686;BME280;44465;53.206;-6.106;2023-05-11T11:26:06;101413.81;;;17.54;56.39
58686;BME280;44465;53.206;-6.106;2023-05-11T11:29:07;101420.88;;;17.55;56.10
58686;BME280;44465;53.206;-6.106;2023-05-11T11:31:33;101410.94;;;17.60;56.28
58686;BME280;44465;53.206;-6.106;2023-05-11T11:39:26;101428.53;;;17.66;55.96
58686;BME280;44465;53.206;-6.106;2023-05-11T11:42:05;101441.81;;;17.67;55.99
58686;BME280;44465;53.206;-6.106;2023-05-11T11:44:33;101436.53;;;17.36;55.95
58686;BME280;44465;53.206;-6.106;2023-05-11T11:47:19;101438.16;;;17.42;55.98
58686;BME280;44465;53.206;-6.106;2023-05-11T11:49:47;101435.13;;;17.54;56.11
58686;BME280;44465;53.206;-6.106;2023-05-11T11:52:35;101447.44;;;17.58;55.85
58686;BME280;44465;53.206;-6.106;2023-05-11T11:55:01;101445.28;;;17.70;56.23
58686;BME280;44465;53.206;-6.106;2023-05-11T12:02:26;101445.56;;;17.60;56.74
58686;BME280;44465;53.206;-6.106;2023-05-11T12:07:44;101452.06;;;17.80;56.67
58686;BME280;44465;53.206;-6.106;2023-05-11T12:10:17;101453.94;;;17.78;57.06
58686;BME280;44465;53.206;-6.106;2023-05-11T12:12:47;101465.78;;;17.97;56.50
58686;BME280;44465;53.206;-6.106;2023-05-11T12:15:29;101462.00;;;18.05;56.79
58686;BME280;44465;53.206;-6.106;2023-05-11T12:17:56;101468.28;;;18.31;56.86
58686;BME280;44465;53.206;-6.106;2023-05-11T12:20:22;101477.06;;;18.34;56.95
58686;BME280;44465;53.206;-6.106;2023-05-11T12:22:49;101474.84;;;18.47;56.58
58686;BME280;44465;53.206;-6.106;2023-05-11T12:25:15;101465.84;;;18.51;57.16
58686;BME280;44465;53.206;-6.106;2023-05-11T12:30:19;101473.09;;;19.47;54.25
58686;BME280;44465;53.206;-6.106;2023-05-11T12:32:45;101478.56;;;18.95;55.96
58686;BME280;44465;53.206;-6.106;2023-05-11T12:35:10;101485.97;;;18.85;56.21
58686;BME280;44465;53.206;-6.106;2023-05-11T12:37:40;101482.94;;;18.71;56.85
58686;BME280;44465;53.206;-6.106;2023-05-11T12:40:09;101486.53;;;18.70;56.71
58686;BME280;44465;53.206;-6.106;2023-05-11T12:42:35;101492.06;;;18.64;56.55
58686;BME280;44465;53.206;-6.106;2023-05-11T12:45:02;101501.97;;;18.60;55.92
58686;BME280;44465;53.206;-6.106;2023-05-11T12:47:28;101495.66;;;18.63;55.75
58686;BME280;44465;53.206;-6.106;2023-05-11T12:49:54;101500.78;;;18.69;55.85
58686;BME280;44465;53.206;-6.106;2023-05-11T12:52:22;101500.72;;;18.70;55.97
58686;BME280;44465;53.206;-6.106;2023-05-11T12:54:48;101500.69;;;18.72;55.81
58686;BME280;44465;53.206;-6.106;2023-05-11T12:57:26;101494.41;;;18.73;55.89
58686;BME280;44465;53.206;-6.106;2023-05-11T13:00:05;101493.66;;;18.69;55.59
58686;BME280;44465;53.206;-6.106;2023-05-11T13:02:32;101490.97;;;18.69;55.92
58686;BME280;44465;53.206;-6.106;2023-05-11T13:04:58;101491.03;;;18.68;55.78
58686;BME280;44465;53.206;-6.106;2023-05-11T13:07:25;101493.72;;;18.68;56.15
58686;BME280;44465;53.206;-6.106;2023-05-11T13:09:58;101493.66;;;18.69;56.06
58686;BME280;44465;53.206;-6.106;2023-05-11T13:12:24;101497.19;;;18.70;55.96
58686;BME280;44465;53.206;-6.106;2023-05-11T13:17:29;101497.97;;;18.73;56.30
58686;BME280;44465;53.206;-6.106;2023-05-11T13:19:55;101499.50;;;18.81;56.35
58686;BME280;44465;53.206;-6.106;2023-05-11T13:22:21;101495.97;;;18.80;56.34
58686;BME280;44465;53.206;-6.106;2023-05-11T13:24:46;101497.72;;;18.81;56.40
58686;BME280;44465;53.206;-6.106;2023-05-11T13:27:11;101499.47;;;18.82;56.01
58686;BME280;44465;53.206;-6.106;2023-05-11T13:29:37;101499.47;;;18.82;56.33
58686;BME280;44465;53.206;-6.106;2023-05-11T13:32:02;101506.41;;;18.86;56.34
58686;BME280;44465;53.206;-6.106;2023-05-11T13:34:28;101516.16;;;18.87;56.42